Time;durP1;ratioP1;P1;durP2;ratioP2;P2;SDS_P1;SDS_P2;PMS_P1;PMS_P2;Temp;Humidity;BMP_temperature;BMP_pressure;BME280_temperature;BME280_humidity;BME280_pressure;Samples;Min_cycle;Max_cycle;Signal;HPM_P1;HPM_P2
2021/08/21 00:01:40;;;;;;;11.77;10.68;;;16.10;79.10;;;;;;4965532;29;20153;-66
2021/08/21 00:04:15;;;;;;;11.70;10.70;;;16.00;79.40;;;;;;4964490;29;20045;-66
2021/08/21 00:06:47;;;;;;;12.63;11.43;;;16.00;80.00;;;;;;4961498;29;20051;-66
2021/08/21 00:09:19;;;;;;;13.95;11.20;;;16.00;80.10;;;;;;4965321;29;20126;-66
2021/08/21 00:11:51;;;;;;;11.82;10.73;;;15.90;80.10;;;;;;4964710;29;20182;-65
2021/08/21 00:14:23;;;;;;;11.63;10.60;;;15.80;79.90;;;;;;4965487;29;20118;-65
2021/08/21 00:16:55;;;;;;;11.70;10.60;;;15.90;80.80;;;;;;4961464;29;20465;-65
2021/08/21 00:19:28;;;;;;;12.10;11.00;;;15.80;80.40;;;;;;4963420;29;20062;-65
2021/08/21 00:21:59;;;;;;;12.38;11.27;;;15.80;79.90;;;;;;4965471;29;20481;-65
2021/08/21 00:24:31;;;;;;;12.20;10.77;;;15.80;80.20;;;;;;4963846;29;20064;-67
2021/08/21 00:27:03;;;;;;;11.73;10.63;;;15.80;79.40;;;;;;4965349;29;20075;-67
2021/08/21 00:29:35;;;;;;;11.73;10.63;;;15.80;79.60;;;;;;4965623;29;20108;-66
2021/08/21 00:32:08;;;;;;;11.40;10.27;;;15.80;79.60;;;;;;4964156;29;20047;-66
2021/08/21 00:34:40;;;;;;;12.50;11.30;;;15.70;80.20;;;;;;4963448;29;20159;-66
2021/08/21 00:37:12;;;;;;;12.75;11.65;;;15.70;80.40;;;;;;4973342;29;20540;-66
2021/08/21 00:39:44;;;;;;;12.63;11.52;;;15.70;80.40;;;;;;4949929;29;20058;-65
2021/08/21 00:42:17;;;;;;;11.70;10.70;;;15.70;80.70;;;;;;4964124;29;20543;-66
2021/08/21 00:44:49;;;;;;;12.27;11.10;;;15.70;81.50;;;;;;4965757;29;20055;-65
2021/08/21 00:47:21;;;;;;;12.48;11.27;;;15.60;81.80;;;;;;4964276;29;20679;-65
2021/08/21 00:49:54;;;;;;;12.52;11.43;;;15.60;81.90;;;;;;4965020;29;20054;-65
2021/08/21 00:52:34;;;;;;;12.48;11.30;;;15.50;81.60;;;;;;4963448;29;20047;-65
2021/08/21 00:55:07;;;;;;;13.23;12.10;;;15.50;81.50;;;;;;4978440;29;20050;-65
2021/08/21 00:57:39;;;;;;;12.77;11.57;;;15.50;83.20;;;;;;4961458;29;20323;-65
2021/08/21 01:00:11;;;;;;;13.00;11.70;;;15.50;81.10;;;;;;4965016;29;20057;-65
2021/08/21 01:02:45;;;;;;;12.25;11.15;;;15.50;80.90;;;;;;4964711;29;20051;-65
2021/08/21 01:05:19;;;;;;;12.93;11.45;;;15.50;81.40;;;;;;4963944;29;20058;-66
2021/08/21 01:07:53;;;;;;;12.32;11.23;;;15.50;81.10;;;;;;4957482;29;20441;-66
2021/08/21 01:10:28;;;;;;;12.68;11.48;;;15.50;80.60;;;;;;4962536;29;20051;-65
2021/08/21 01:13:00;;;;;;;12.05;10.85;;;15.40;80.40;;;;;;4947838;29;20663;-65
2021/08/21 01:15:32;;;;;;;11.55;10.45;;;15.50;81.10;;;;;;4979597;29;20046;-67
2021/08/21 01:18:13;;;;;;;12.68;11.38;;;15.40;80.70;;;;;;4962717;29;20514;-65
2021/08/21 01:20:46;;;;;;;12.60;11.40;;;15.40;81.20;;;;;;4948052;29;20050;-65
2021/08/21 01:23:23;;;;;;;12.88;11.57;;;15.30;81.00;;;;;;4959797;29;20050;-65
2021/08/21 01:26:02;;;;;;;13.73;12.23;;;15.30;80.50;;;;;;4962283;29;20502;-67
2021/08/21 01:28:57;;;;;;;12.57;11.35;;;15.30;81.50;;;;;;4963803;29;20884;-65
2021/08/21 01:31:55;;;;;;;14.90;12.40;;;15.20;81.80;;;;;;4963750;29;20522;-65
2021/08/21 01:34:27;;;;;;;13.30;11.90;;;15.20;81.50;;;;;;4964855;29;20055;-65
2021/08/21 01:36:59;;;;;;;13.00;11.90;;;15.20;81.50;;;;;;4955228;29;20082;-65
2021/08/21 01:39:58;;;;;;;13.00;11.88;;;15.20;81.50;;;;;;4963308;29;20071;-65
2021/08/21 01:42:38;;;;;;;12.65;11.55;;;15.20;81.20;;;;;;4962330;29;20051;-64
2021/08/21 01:45:13;;;;;;;12.77;11.57;;;15.20;81.30;;;;;;4947345;29;20806;-65
2021/08/21 01:47:48;;;;;;;12.27;11.27;;;15.20;82.00;;;;;;4953712;29;20061;-67
2021/08/21 01:50:21;;;;;;;12.73;11.63;;;15.20;81.30;;;;;;4961068;29;20051;-65
2021/08/21 01:52:56;;;;;;;12.70;11.57;;;15.20;81.50;;;;;;4961315;29;20596;-64
2021/08/21 01:55:38;;;;;;;13.05;11.75;;;15.10;81.50;;;;;;4961794;29;20058;-65
2021/08/21 01:58:19;;;;;;;12.82;11.73;;;15.10;81.80;;;;;;4962293;29;20047;-64
2021/08/21 02:01:15;;;;;;;13.32;12.13;;;15.10;81.70;;;;;;4963163;29;20047;-64
2021/08/21 02:04:13;;;;;;;13.52;12.30;;;15.10;82.10;;;;;;4963443;29;20059;-65
2021/08/21 02:06:45;;;;;;;13.93;12.73;;;15.00;81.10;;;;;;4961925;29;20051;-64
2021/08/21 02:09:22;;;;;;;13.20;12.07;;;15.00;81.90;;;;;;4948755;29;20194;-64
2021/08/21 02:11:55;;;;;;;12.88;11.75;;;15.00;81.70;;;;;;4963242;29;20078;-65
2021/08/21 02:14:28;;;;;;;12.73;11.52;;;15.00;82.00;;;;;;4962795;29;20062;-64
2021/08/21 02:17:03;;;;;;;13.45;12.18;;;15.00;82.30;;;;;;4975501;29;20154;-64
2021/08/21 02:19:42;;;;;;;14.18;12.20;;;15.00;82.10;;;;;;4956892;29;20051;-64
2021/08/21 02:22:19;;;;;;;13.18;12.02;;;15.00;82.60;;;;;;4960695;29;20046;-65
2021/08/21 02:24:52;;;;;;;13.00;11.80;;;14.90;82.50;;;;;;4952433;29;20050;-65
2021/08/21 02:27:25;;;;;;;13.38;12.00;;;14.90;82.50;;;;;;4976841;29;20046;-65
2021/08/21 02:29:57;;;;;;;12.48;11.32;;;14.90;82.70;;;;;;4961613;29;20138;-64
2021/08/21 02:32:29;;;;;;;13.55;12.35;;;14.90;83.10;;;;;;4945969;29;20051;-65
2021/08/21 02:35:02;;;;;;;13.00;11.77;;;14.90;83.20;;;;;;4955833;29;20059;-66
2021/08/21 02:37:34;;;;;;;12.70;11.60;;;14.90;83.30;;;;;;4957331;29;20679;-65
2021/08/21 02:40:07;;;;;;;14.18;11.75;;;14.80;83.40;;;;;;4960347;29;20074;-65
2021/08/21 02:42:39;;;;;;;13.60;12.20;;;14.70;83.30;;;;;;4961790;29;20055;-65
2021/08/21 02:45:11;;;;;;;12.30;11.23;;;14.70;82.90;;;;;;4963740;29;20119;-66
2021/08/21 02:47:44;;;;;;;12.95;11.85;;;14.80;83.30;;;;;;4961052;29;20042;-64
2021/08/21 02:50:15;;;;;;;12.55;11.45;;;14.70;83.00;;;;;;4963199;29;20741;-65
2021/08/21 02:52:50;;;;;;;13.68;11.82;;;14.70;83.40;;;;;;4962448;29;20166;-66
2021/08/21 02:55:24;;;;;;;12.27;11.18;;;14.70;83.80;;;;;;4977412;29;20054;-65
2021/08/21 02:57:57;;;;;;;13.10;12.00;;;14.70;83.50;;;;;;4959019;29;20777;-65
2021/08/21 03:00:37;;;;;;;11.73;10.63;;;14.70;83.10;;;;;;4973206;29;20127;-65
2021/08/21 03:03:12;;;;;;;12.68;11.57;;;14.60;82.90;;;;;;4962119;29;20054;-64
2021/08/21 03:05:49;;;;;;;12.82;11.73;;;14.60;82.70;;;;;;4961519;29;20070;-65
2021/08/21 03:08:25;;;;;;;12.65;11.57;;;14.50;82.60;;;;;;4955353;29;20050;-64
2021/08/21 03:10:59;;;;;;;12.40;11.20;;;14.50;82.80;;;;;;4960212;29;20055;-64
2021/08/21 03:13:47;;;;;;;12.25;11.15;;;14.50;82.90;;;;;;4947841;29;20046;-65
2021/08/21 03:16:19;;;;;;;12.13;11.00;;;14.50;83.10;;;;;;4960273;29;21056;-64
2021/08/21 03:18:51;;;;;;;11.73;10.73;;;14.50;83.70;;;;;;4961423;29;20055;-65
2021/08/21 03:21:23;;;;;;;12.90;11.77;;;14.50;83.60;;;;;;4962016;29;20050;-66
2021/08/21 03:23:56;;;;;;;11.82;10.68;;;14.50;83.20;;;;;;4961000;29;20104;-64
2021/08/21 03:26:29;;;;;;;12.05;10.95;;;14.50;82.90;;;;;;4956031;29;20047;-64
2021/08/21 03:29:03;;;;;;;13.88;11.75;;;14.50;82.70;;;;;;4960642;29;20051;-67
2021/08/21 03:31:35;;;;;;;12.02;10.88;;;14.40;82.70;;;;;;4953942;29;20039;-64
2021/08/21 03:34:07;;;;;;;12.07;10.98;;;14.40;82.50;;;;;;4946982;29;20769;-64
2021/08/21 03:36:39;;;;;;;12.45;11.27;;;14.30;82.50;;;;;;4974147;29;20055;-64
2021/08/21 03:39:12;;;;;;;12.02;10.88;;;14.30;83.00;;;;;;4955090;29;20058;-64
2021/08/21 03:41:46;;;;;;;11.55;10.35;;;14.30;82.70;;;;;;4956380;29;20105;-65
2021/08/21 03:44:20;;;;;;;13.23;11.48;;;14.30;82.60;;;;;;4947542;29;20078;-64
2021/08/21 03:46:53;;;;;;;11.27;10.25;;;14.20;83.20;;;;;;4959797;29;20051;-64
2021/08/21 03:49:28;;;;;;;12.05;10.95;;;14.20;82.80;;;;;;4961152;29;20051;-64
2021/08/21 03:52:00;;;;;;;11.55;10.50;;;14.20;83.10;;;;;;4976039;29;20050;-64
2021/08/21 03:54:37;;;;;;;11.70;10.60;;;14.20;82.30;;;;;;4961577;29;20046;-65
2021/08/21 03:57:09;;;;;;;11.23;10.23;;;14.20;82.40;;;;;;4960036;29;20054;-65
2021/08/21 03:59:41;;;;;;;11.63;10.55;;;14.20;82.00;;;;;;4960929;29;20050;-64
2021/08/21 04:02:16;;;;;;;12.35;10.38;;;14.20;82.20;;;;;;4939945;29;20454;-66
2021/08/21 04:04:51;;;;;;;11.48;10.43;;;14.20;82.00;;;;;;4960063;29;20172;-65
2021/08/21 04:07:23;;;;;;;11.65;10.63;;;14.20;82.50;;;;;;4959573;29;20054;-64
2021/08/21 04:09:55;;;;;;;10.68;9.68;;;14.20;82.60;;;;;;4960747;29;20043;-64
2021/08/21 04:12:27;;;;;;;11.23;10.30;;;14.20;82.90;;;;;;4962224;29;20047;-65
2021/08/21 04:15:09;;;;;;;11.85;10.77;;;14.10;83.40;;;;;;4957731;29;20460;-66
2021/08/21 04:17:42;;;;;;;12.35;11.25;;;14.10;83.20;;;;;;4950645;29;20138;-64
2021/08/21 04:20:14;;;;;;;12.15;11.05;;;14.00;83.10;;;;;;4960552;29;20104;-65
2021/08/21 04:22:47;;;;;;;11.32;10.32;;;14.00;83.10;;;;;;4978179;29;20051;-66
2021/08/21 04:25:19;;;;;;;10.77;9.88;;;13.80;83.10;;;;;;4944399;29;20272;-64
2021/08/21 04:27:54;;;;;;;11.18;9.93;;;13.90;83.30;;;;;;4955759;29;20058;-64
2021/08/21 04:30:27;;;;;;;12.55;10.80;;;13.80;83.50;;;;;;4957604;29;20223;-64
2021/08/21 04:32:59;;;;;;;11.52;10.52;;;13.90;84.10;;;;;;4960097;29;20134;-65
2021/08/21 04:35:31;;;;;;;11.35;10.25;;;13.80;83.70;;;;;;4963001;29;20123;-65
2021/08/21 04:38:05;;;;;;;11.57;10.55;;;13.80;83.80;;;;;;4964016;29;20042;-66
2021/08/21 04:40:46;;;;;;;12.20;11.00;;;13.80;83.30;;;;;;4965273;29;20039;-64
2021/08/21 04:43:19;;;;;;;11.13;10.18;;;13.80;83.10;;;;;;4961911;29;20078;-65
2021/08/21 04:45:52;;;;;;;12.35;11.20;;;13.80;82.70;;;;;;4947563;29;20053;-64
2021/08/21 04:48:24;;;;;;;12.10;11.00;;;13.80;83.00;;;;;;4947898;29;20090;-64
2021/08/21 04:50:57;;;;;;;12.10;11.00;;;13.80;82.90;;;;;;4954945;29;20119;-64
2021/08/21 04:53:29;;;;;;;11.40;10.32;;;13.80;83.00;;;;;;4954290;29;20047;-64
2021/08/21 04:56:01;;;;;;;12.15;10.95;;;13.70;83.30;;;;;;4963243;29;20418;-66
2021/08/21 04:58:38;;;;;;;11.98;10.75;;;13.70;84.10;;;;;;4959453;29;20119;-64
2021/08/21 05:01:13;;;;;;;11.57;10.38;;;13.70;83.80;;;;;;4961368;29;20153;-64
2021/08/21 05:03:46;;;;;;;11.60;10.55;;;13.80;83.40;;;;;;4962636;29;20153;-65
2021/08/21 05:06:18;;;;;;;11.75;10.55;;;13.90;83.60;;;;;;4963068;29;20046;-65
2021/08/21 05:08:51;;;;;;;11.13;9.93;;;14.00;83.10;;;;;;4978051;29;20105;-64
2021/08/21 05:11:22;;;;;;;11.57;10.43;;;14.10;83.10;;;;;;4962481;29;20398;-65
2021/08/21 05:13:58;;;;;;;11.73;10.65;;;14.20;82.80;;;;;;4978285;29;20580;-64
2021/08/21 05:16:31;;;;;;;11.73;10.63;;;14.40;82.50;;;;;;4963499;29;20063;-66
2021/08/21 05:21:58;;;;;;;12.63;11.32;;;14.60;82.50;;;;;;4962803;29;20686;-65
2021/08/21 05:24:30;;;;;;;12.27;10.63;;;14.70;83.20;;;;;;4958198;29;20185;-65
2021/08/21 05:27:02;;;;;;;11.75;10.65;;;14.80;82.80;;;;;;4958535;29;20074;-66
2021/08/21 05:29:35;;;;;;;12.32;11.23;;;14.90;82.70;;;;;;4962954;29;20528;-65
2021/08/21 05:32:07;;;;;;;12.23;9.93;;;15.00;82.90;;;;;;4963265;29;20597;-65
2021/08/21 05:34:39;;;;;;;11.40;10.40;;;15.10;82.50;;;;;;4963563;29;20111;-65
2021/08/21 05:37:11;;;;;;;11.27;10.25;;;15.30;83.00;;;;;;4976956;29;20070;-65
2021/08/21 05:39:43;;;;;;;11.93;10.82;;;15.40;81.70;;;;;;4962832;29;20963;-64
2021/08/21 05:42:15;;;;;;;11.27;10.27;;;15.50;82.80;;;;;;4964344;29;20051;-64
2021/08/21 05:44:47;;;;;;;11.98;10.88;;;15.70;82.20;;;;;;4962098;29;20740;-64
2021/08/21 05:47:19;;;;;;;12.35;11.15;;;15.70;82.40;;;;;;4963701;29;20130;-64
2021/08/21 05:49:50;;;;;;;11.00;9.98;;;15.80;82.10;;;;;;4964690;29;20486;-65
2021/08/21 05:52:22;;;;;;;12.07;11.07;;;15.80;82.10;;;;;;4963385;29;20129;-64
2021/08/21 05:54:57;;;;;;;12.18;11.00;;;15.90;82.90;;;;;;4964349;29;20129;-64
2021/08/21 05:57:39;;;;;;;12.30;11.10;;;15.90;82.40;;;;;;4961829;29;20062;-66
2021/08/21 06:00:12;;;;;;;11.80;10.57;;;15.90;82.40;;;;;;4972218;29;20061;-65
2021/08/21 06:02:44;;;;;;;12.30;11.07;;;15.70;83.00;;;;;;4964588;29;20506;-64
2021/08/21 06:05:16;;;;;;;13.38;12.07;;;15.70;82.80;;;;;;4964039;29;20379;-66
2021/08/21 06:07:50;;;;;;;13.45;12.05;;;15.70;83.30;;;;;;4956817;29;20146;-64
2021/08/21 06:10:30;;;;;;;12.90;11.70;;;15.60;83.20;;;;;;4930955;29;20399;-66
2021/08/21 06:13:03;;;;;;;12.30;11.10;;;15.50;84.30;;;;;;4960380;29;20748;-65
2021/08/21 06:15:35;;;;;;;13.38;12.18;;;15.40;84.80;;;;;;4962155;29;20129;-65
2021/08/21 06:18:07;;;;;;;12.85;11.65;;;15.40;85.00;;;;;;4960472;29;20047;-65
2021/08/21 06:20:39;;;;;;;13.52;12.23;;;15.40;84.90;;;;;;4962789;29;20528;-66
2021/08/21 06:23:11;;;;;;;14.32;11.63;;;15.50;85.10;;;;;;4962236;29;20184;-65
2021/08/21 06:25:43;;;;;;;12.85;11.65;;;15.60;84.80;;;;;;4961815;29;20119;-66
2021/08/21 06:28:15;;;;;;;12.82;11.63;;;15.60;84.50;;;;;;4961761;29;20601;-66
2021/08/21 06:30:47;;;;;;;12.70;11.57;;;15.70;84.50;;;;;;4960001;29;20047;-67
2021/08/21 06:33:19;;;;;;;12.95;11.77;;;15.80;83.70;;;;;;4961996;29;20473;-67
2021/08/21 06:35:51;;;;;;;12.10;11.00;;;16.00;84.20;;;;;;4940147;29;20047;-66
2021/08/21 06:38:23;;;;;;;12.65;11.45;;;16.20;83.60;;;;;;4960848;29;20054;-66
2021/08/21 06:40:55;;;;;;;13.32;12.10;;;16.40;84.00;;;;;;4962619;29;20510;-66
2021/08/21 06:43:26;;;;;;;17.23;15.52;;;16.60;82.50;;;;;;4958571;29;20043;-66
2021/08/21 06:46:09;;;;;;;13.27;11.90;;;16.70;82.30;;;;;;4958873;29;20069;-66
2021/08/21 06:48:41;;;;;;;14.48;13.15;;;16.80;80.10;;;;;;4961591;29;20110;-68
2021/08/21 06:51:13;;;;;;;12.77;11.68;;;16.80;80.50;;;;;;4960482;29;21448;-66
2021/08/21 06:53:45;;;;;;;13.05;11.85;;;16.80;81.10;;;;;;4960190;29;20506;-67
2021/08/21 06:56:17;;;;;;;12.48;11.32;;;16.90;81.40;;;;;;4974595;29;20054;-67
2021/08/21 06:58:49;;;;;;;12.98;11.77;;;16.90;79.80;;;;;;4960647;29;20080;-67
2021/08/21 07:01:21;;;;;;;13.73;12.43;;;17.00;80.70;;;;;;4961429;29;20047;-66
2021/08/21 07:03:53;;;;;;;13.57;12.38;;;16.90;81.40;;;;;;4960871;29;20495;-66
2021/08/21 07:06:25;;;;;;;14.00;12.80;;;16.90;81.70;;;;;;4959828;29;20047;-68
2021/08/21 07:08:57;;;;;;;13.75;12.57;;;16.90;82.20;;;;;;4973939;29;20129;-66
2021/08/21 07:11:29;;;;;;;13.57;12.48;;;17.10;81.90;;;;;;4959847;29;20143;-65
2021/08/21 07:14:01;;;;;;;14.05;12.73;;;17.40;82.20;;;;;;4952429;29;20063;-66
2021/08/21 07:16:33;;;;;;;13.70;12.60;;;17.60;81.90;;;;;;4960487;29;20150;-65
2021/08/21 07:19:06;;;;;;;13.23;12.13;;;17.80;81.00;;;;;;4958051;29;20128;-65
2021/08/21 07:21:37;;;;;;;14.05;12.77;;;17.90;81.10;;;;;;4959808;29;20050;-66
2021/08/21 07:24:10;;;;;;;12.60;11.55;;;17.90;81.60;;;;;;4958757;29;20070;-66
2021/08/21 07:26:41;;;;;;;13.95;12.70;;;17.90;81.80;;;;;;4959326;29;20141;-66
2021/08/21 07:29:14;;;;;;;14.93;13.55;;;17.90;81.30;;;;;;4944352;29;20051;-66
2021/08/21 07:37:41;;;;;;;14.48;13.18;;;18.40;82.90;;;;;;5100596;24;20064;-71
2021/08/21 07:40:13;;;;;;;14.10;13.00;;;18.50;82.50;;;;;;4930041;29;20047;-69
2021/08/21 07:42:45;;;;;;;14.75;13.45;;;18.70;81.90;;;;;;4932623;29;20452;-70
2021/08/21 07:48:25;;;;;;;14.02;12.73;;;18.80;80.20;;;;;;4967622;24;20047;-72
2021/08/21 07:50:57;;;;;;;13.73;12.55;;;18.90;80.20;;;;;;4930469;29;20154;-71
2021/08/21 07:53:29;;;;;;;13.52;12.43;;;19.00;79.40;;;;;;4931384;29;20575;-71
2021/08/21 07:56:06;;;;;;;15.25;13.95;;;19.10;79.10;;;;;;4932657;29;20154;-71
2021/08/21 07:58:38;;;;;;;14.15;12.77;;;19.30;77.30;;;;;;4938118;29;20047;-72
2021/08/21 08:01:10;;;;;;;14.55;13.35;;;19.50;77.70;;;;;;4934710;29;20193;-71
2021/08/21 08:03:42;;;;;;;13.52;12.43;;;19.60;74.80;;;;;;4936108;29;20051;-70
2021/08/21 08:06:14;;;;;;;15.18;13.98;;;19.70;73.50;;;;;;4934256;29;20135;-70
2021/08/21 08:08:46;;;;;;;14.70;13.52;;;19.90;74.10;;;;;;4939467;29;20205;-70
2021/08/21 08:11:17;;;;;;;14.25;13.05;;;20.10;74.40;;;;;;4938076;29;20070;-70
2021/08/21 08:13:50;;;;;;;14.65;13.35;;;20.20;72.80;;;;;;4937373;29;20120;-71
2021/08/21 08:16:21;;;;;;;15.40;14.13;;;20.30;71.20;;;;;;4935852;29;20117;-72
2021/08/21 08:18:53;;;;;;;15.07;13.77;;;20.50;71.10;;;;;;4934844;29;20063;-71
2021/08/21 08:21:25;;;;;;;15.70;14.40;;;20.70;70.90;;;;;;4935481;29;20537;-71
2021/08/21 08:23:57;;;;;;;15.73;14.25;;;20.80;73.40;;;;;;4938277;29;20047;-69
2021/08/21 08:26:30;;;;;;;14.75;13.55;;;20.90;70.80;;;;;;4936386;29;20132;-73
2021/08/21 08:29:01;;;;;;;14.35;13.25;;;21.00;70.10;;;;;;4935774;29;20078;-71
2021/08/21 08:31:33;;;;;;;15.82;14.32;;;21.10;71.70;;;;;;4936636;29;20138;-69
2021/08/21 08:34:05;;;;;;;14.57;13.38;;;21.20;73.10;;;;;;4936695;29;20057;-69
2021/08/21 08:36:37;;;;;;;15.20;13.70;;;21.40;71.60;;;;;;4934407;29;20492;-70
2021/08/21 08:39:10;;;;;;;14.77;13.60;;;21.50;69.50;;;;;;4936484;29;20478;-69
2021/08/21 08:41:42;;;;;;;15.32;14.13;;;21.60;69.80;;;;;;4934673;29;20154;-70
2021/08/21 08:44:15;;;;;;;15.52;14.32;;;21.70;68.30;;;;;;4936304;29;20161;-72
2021/08/21 08:46:47;;;;;;;15.18;13.98;;;21.90;68.80;;;;;;4935086;29;20063;-72
2021/08/21 08:49:20;;;;;;;15.32;14.02;;;22.00;66.90;;;;;;4938254;29;20130;-74
2021/08/21 08:51:53;;;;;;;17.48;13.90;;;22.00;66.80;;;;;;4935325;29;20476;-73
2021/08/21 08:54:24;;;;;;;15.00;13.90;;;22.10;65.00;;;;;;4935081;29;20075;-73
2021/08/21 08:56:56;;;;;;;15.68;14.38;;;22.20;62.80;;;;;;4938446;29;20603;-72
2021/08/21 08:59:29;;;;;;;15.07;13.82;;;22.30;65.60;;;;;;4937464;29;20047;-72
2021/08/21 09:02:02;;;;;;;16.05;14.52;;;22.40;64.20;;;;;;4937550;29;20055;-72
2021/08/21 09:04:34;;;;;;;14.55;13.45;;;22.70;64.90;;;;;;4932313;29;20054;-72
2021/08/21 09:07:09;;;;;;;15.43;14.23;;;22.80;61.10;;;;;;4934826;29;20134;-72
2021/08/21 09:09:43;;;;;;;15.18;13.88;;;22.80;66.20;;;;;;4938002;29;20476;-75
2021/08/21 09:12:23;;;;;;;15.77;14.48;;;23.10;61.60;;;;;;4933981;29;20146;-73
2021/08/21 09:14:55;;;;;;;;;;;23.20;63.50;;;;;;4936947;29;20055;-72
2021/08/21 09:17:27;;;;;;;15.82;14.52;;;23.30;63.50;;;;;;4934781;29;20461;-73
2021/08/21 09:20:06;;;;;;;15.20;13.98;;;23.20;65.70;;;;;;4938073;29;20058;-73
2021/08/21 09:22:38;;;;;;;15.82;14.43;;;23.20;66.00;;;;;;4936750;29;20142;-74
2021/08/21 09:25:10;;;;;;;15.52;14.32;;;23.30;64.30;;;;;;4938184;29;20135;-74
2021/08/21 09:27:42;;;;;;;15.35;14.10;;;23.40;62.90;;;;;;4936133;29;20132;-74
2021/08/21 09:30:15;;;;;;;16.38;14.95;;;23.50;64.40;;;;;;4937897;29;20120;-74
2021/08/21 09:32:47;;;;;;;15.15;13.95;;;23.70;64.40;;;;;;4939690;29;20048;-74
2021/08/21 09:35:19;;;;;;;16.15;14.95;;;23.70;64.30;;;;;;4936013;29;20131;-74
2021/08/21 09:37:53;;;;;;;16.40;15.00;;;23.80;62.40;;;;;;4936025;29;20079;-74
2021/08/21 09:40:27;;;;;;;15.52;14.32;;;24.00;64.60;;;;;;4934941;29;20062;-74
2021/08/21 09:43:04;;;;;;;15.20;13.95;;;24.00;63.90;;;;;;4938461;29;20061;-74
2021/08/21 09:45:39;;;;;;;15.35;14.05;;;23.90;63.60;;;;;;4940522;29;20075;-73
2021/08/21 09:48:11;;;;;;;15.15;13.95;;;24.00;65.40;;;;;;4936320;29;20075;-76
2021/08/21 09:50:43;;;;;;;15.77;14.57;;;23.90;62.80;;;;;;4938584;29;20074;-74
2021/08/21 09:53:14;;;;;;;15.73;14.48;;;24.00;65.10;;;;;;4937360;29;20136;-75
2021/08/21 09:55:47;;;;;;;15.38;14.18;;;24.20;65.20;;;;;;4936185;29;20048;-74
2021/08/21 09:58:20;;;;;;;15.23;14.02;;;24.30;63.50;;;;;;4937918;29;20142;-74
2021/08/21 10:00:55;;;;;;;16.00;14.60;;;24.50;63.10;;;;;;4940220;29;20143;-73
2021/08/21 10:03:27;;;;;;;15.77;14.38;;;24.50;60.90;;;;;;4933935;29;20055;-73
2021/08/21 10:05:59;;;;;;;15.73;14.38;;;24.60;62.80;;;;;;4934495;29;20212;-73
2021/08/21 10:08:32;;;;;;;15.60;14.38;;;24.70;60.80;;;;;;4935909;29;20139;-73
2021/08/21 10:11:08;;;;;;;15.57;14.38;;;24.70;64.90;;;;;;4937119;29;20052;-74
2021/08/21 10:13:42;;;;;;;16.13;14.82;;;24.70;58.90;;;;;;4935634;29;20079;-73
2021/08/21 10:16:14;;;;;;;16.50;14.93;;;24.70;61.20;;;;;;4932050;29;20957;-74
2021/08/21 10:18:48;;;;;;;15.65;14.45;;;24.70;61.20;;;;;;4935367;29;20193;-72
2021/08/21 10:21:21;;;;;;;15.45;14.30;;;24.60;61.80;;;;;;4938497;29;20051;-74
2021/08/21 10:23:53;;;;;;;15.52;14.18;;;24.70;62.40;;;;;;4935501;29;20079;-74
2021/08/21 10:26:32;;;;;;;15.60;14.50;;;24.80;61.60;;;;;;4937479;29;20991;-74
2021/08/21 10:29:10;;;;;;;16.47;15.17;;;24.90;62.60;;;;;;4938087;29;20107;-76
2021/08/21 10:31:47;;;;;;;15.77;14.45;;;25.10;63.00;;;;;;4937623;29;20743;-74
2021/08/21 10:34:19;;;;;;;16.35;15.15;;;25.10;61.50;;;;;;4937910;29;20075;-73
2021/08/21 10:36:57;;;;;;;16.33;14.90;;;25.20;62.20;;;;;;4936102;29;20054;-74
2021/08/21 10:39:35;;;;;;;16.38;15.18;;;25.40;63.00;;;;;;4934762;29;20131;-73
2021/08/21 10:42:24;;;;;;;15.82;14.65;;;25.40;62.60;;;;;;4936094;29;20051;-75
2021/08/21 10:44:58;;;;;;;16.15;14.75;;;25.50;60.80;;;;;;4935865;29;20135;-74
2021/08/21 10:47:30;;;;;;;16.90;15.60;;;25.50;60.10;;;;;;4935344;29;20177;-74
2021/08/21 10:50:14;;;;;;;16.42;15.02;;;25.60;59.90;;;;;;4933288;29;20090;-74
2021/08/21 10:52:57;;;;;;;16.52;15.10;;;25.60;57.80;;;;;;4933169;29;20128;-73
2021/08/21 10:55:43;;;;;;;16.38;14.98;;;25.60;54.90;;;;;;4936304;29;20066;-75
2021/08/21 10:58:20;;;;;;;16.52;15.23;;;25.80;53.60;;;;;;4936753;29;20059;-75
2021/08/21 11:01:01;;;;;;;17.08;15.68;;;25.80;54.20;;;;;;4936102;29;20131;-73
2021/08/21 11:03:33;;;;;;;17.38;16.10;;;26.00;53.80;;;;;;4934796;29;20043;-74
2021/08/21 11:06:11;;;;;;;16.88;15.57;;;26.10;52.90;;;;;;4935438;29;20063;-73
2021/08/21 11:08:42;;;;;;;16.83;15.55;;;26.20;53.60;;;;;;4936658;29;20108;-74
2021/08/21 11:11:44;;;;;;;17.23;15.93;;;26.30;54.30;;;;;;4935005;29;20055;-76
2021/08/21 11:14:30;;;;;;;17.13;15.70;;;26.50;50.40;;;;;;4939926;29;20577;-75
2021/08/21 11:17:05;;;;;;;17.73;16.25;;;26.60;49.20;;;;;;4931408;29;20058;-74
2021/08/21 11:19:42;;;;;;;17.00;15.70;;;26.60;48.20;;;;;;4935417;29;20063;-73
2021/08/21 11:22:15;;;;;;;18.30;16.85;;;26.70;51.70;;;;;;4934615;29;20138;-72
2021/08/21 11:24:52;;;;;;;17.00;15.70;;;26.80;46.10;;;;;;4929718;29;20043;-71
2021/08/21 11:27:24;;;;;;;17.27;15.98;;;27.00;52.60;;;;;;4933626;29;20124;-73
2021/08/21 11:30:05;;;;;;;17.30;15.88;;;26.90;51.70;;;;;;4931790;29;20071;-73
2021/08/21 11:33:05;;;;;;;17.52;16.23;;;26.90;48.50;;;;;;4944505;29;20142;-72
2021/08/21 11:35:43;;;;;;;;;;;27.10;52.70;;;;;;4936905;29;20548;-70
2021/08/21 11:38:22;;;;;;;17.70;16.40;;;27.10;53.90;;;;;;4938335;29;19933;-71
2021/08/21 11:40:57;;;;;;;16.88;15.50;;;27.30;53.00;;;;;;4936794;29;20150;-71
2021/08/21 11:43:31;;;;;;;16.60;15.40;;;27.00;53.60;;;;;;4938379;29;20130;-71
2021/08/21 11:46:03;;;;;;;16.85;15.55;;;27.10;51.50;;;;;;4937772;29;20812;-74
2021/08/21 11:48:38;;;;;;;16.17;15.07;;;27.00;52.30;;;;;;4940852;29;20058;-75
2021/08/21 11:51:10;;;;;;;17.33;16.02;;;27.10;53.30;;;;;;4940234;29;20110;-71
2021/08/21 11:53:43;;;;;;;17.30;16.00;;;27.20;52.20;;;;;;4935989;29;20051;-71
2021/08/21 11:56:14;;;;;;;16.90;15.60;;;27.20;48.30;;;;;;4937074;29;20123;-71
2021/08/21 11:58:46;;;;;;;16.75;15.52;;;27.30;51.20;;;;;;4937431;29;20436;-71
2021/08/21 12:01:25;;;;;;;17.00;15.70;;;27.20;51.90;;;;;;4938575;29;20063;-75
2021/08/21 12:06:36;;;;;;;16.77;15.57;;;27.10;50.70;;;;;;4936729;29;20079;-71
2021/08/21 12:09:16;;;;;;;17.10;15.68;;;27.30;51.60;;;;;;4936792;29;20521;-73
2021/08/21 12:11:50;;;;;;;16.73;15.52;;;27.40;50.70;;;;;;4936201;29;20150;-72
2021/08/21 12:14:24;;;;;;;16.65;15.45;;;27.40;48.90;;;;;;4939141;29;20502;-73
2021/08/21 12:16:56;;;;;;;16.63;15.23;;;27.50;48.60;;;;;;4936340;29;20048;-72
2021/08/21 12:19:30;;;;;;;16.70;15.45;;;27.50;48.30;;;;;;4937436;29;20155;-73
2021/08/21 12:22:03;;;;;;;16.80;15.50;;;27.60;43.40;;;;;;4937399;29;20047;-74
2021/08/21 12:24:35;;;;;;;16.75;15.45;;;27.70;44.40;;;;;;4934073;29;20430;-71
2021/08/21 12:27:25;;;;;;;17.13;15.73;;;27.70;47.30;;;;;;4936967;29;20690;-71
2021/08/21 12:30:19;;;;;;;17.30;15.88;;;27.80;47.60;;;;;;4935692;29;20051;-72
2021/08/21 12:32:51;;;;;;;16.45;15.25;;;27.90;47.60;;;;;;4934582;29;20142;-71
2021/08/21 12:35:23;;;;;;;17.05;15.75;;;27.90;48.20;;;;;;4936922;29;20071;-71
2021/08/21 12:38:21;;;;;;;16.77;15.48;;;27.90;46.80;;;;;;4935101;29;20047;-73
2021/08/21 12:41:08;;;;;;;16.33;15.10;;;28.00;47.50;;;;;;4935526;29;20047;-72
2021/08/21 12:43:41;;;;;;;17.15;15.75;;;28.00;44.40;;;;;;4936244;29;20158;-73
2021/08/21 12:46:19;;;;;;;16.67;15.43;;;28.00;46.80;;;;;;4934876;29;20055;-75
2021/08/21 12:49:03;;;;;;;17.10;15.90;;;28.10;43.10;;;;;;4938630;29;20117;-75
2021/08/21 12:51:42;;;;;;;17.15;15.85;;;28.10;44.40;;;;;;4936954;29;20096;-74
2021/08/21 12:54:14;;;;;;;;;;;28.10;44.00;;;;;;4935546;29;20082;-73
2021/08/21 12:57:16;;;;;;;17.25;15.95;;;28.10;46.30;;;;;;4934949;29;20364;-73
2021/08/21 12:59:59;;;;;;;17.70;16.40;;;28.20;43.80;;;;;;4935265;29;20039;-73
2021/08/21 13:02:49;;;;;;;17.85;16.55;;;28.20;45.10;;;;;;4940044;29;20052;-73
2021/08/21 13:05:23;;;;;;;17.95;16.55;;;28.20;47.10;;;;;;4936368;29;20055;-72
2021/08/21 13:08:06;;;;;;;17.70;16.50;;;28.30;48.30;;;;;;4936296;29;20057;-73
2021/08/21 13:10:39;;;;;;;18.15;16.73;;;28.30;44.30;;;;;;4938577;29;20463;-73
2021/08/21 13:13:11;;;;;;;17.85;16.48;;;28.40;47.70;;;;;;4935229;29;20047;-73
2021/08/21 13:15:43;;;;;;;18.23;16.80;;;28.50;47.90;;;;;;4941862;29;20054;-73
2021/08/21 13:18:14;;;;;;;18.27;16.90;;;28.50;45.10;;;;;;4936419;29;20053;-75
2021/08/21 13:20:46;;;;;;;17.75;16.40;;;28.40;47.30;;;;;;4937427;29;20052;-74